createdAt,value
2018-01-20T00:01:05.955Z,1.40
2018-01-20T00:03:32.248Z,1.40
2018-01-20T00:05:58.613Z,1.40
2018-01-20T00:08:24.968Z,1.40
2018-01-20T00:11:03.752Z,1.30
2018-01-20T00:13:30.859Z,1.30
2018-01-20T00:15:57.217Z,1.30
2018-01-20T00:18:23.531Z,1.20
2018-01-20T00:20:49.895Z,1.10
2018-01-20T00:23:16.932Z,1.00
2018-01-20T00:25:50.204Z,1.10
2018-01-20T00:28:16.487Z,1.00
2018-01-20T00:30:42.868Z,1.00
2018-01-20T00:33:09.175Z,1.00
2018-01-20T00:35:35.547Z,1.00
2018-01-20T00:38:02.604Z,1.00
2018-01-20T00:40:29.659Z,1.00
2018-01-20T00:42:56.699Z,0.90
2018-01-20T00:45:23.792Z,0.90
2018-01-20T00:47:50.117Z,0.90
2018-01-20T00:50:16.464Z,0.90
2018-01-20T00:52:42.803Z,0.80
2018-01-20T00:55:09.172Z,0.80
2018-01-20T00:57:36.195Z,0.80
2018-01-20T01:00:02.609Z,0.80
2018-01-20T01:02:28.896Z,0.90
2018-01-20T01:04:55.256Z,0.90
2018-01-20T01:07:21.581Z,0.90
2018-01-20T01:09:47.972Z,1.00
2018-01-20T01:12:14.989Z,1.10
2018-01-20T01:14:41.364Z,1.10
2018-01-20T01:17:07.676Z,1.10
2018-01-20T01:19:34.761Z,1.10
2018-01-20T01:22:01.087Z,1.10
2018-01-20T01:24:28.220Z,1.20
2018-01-20T01:26:55.295Z,1.00
2018-01-20T01:29:21.680Z,1.00
2018-01-20T01:31:48.720Z,1.10
2018-01-20T01:34:15.087Z,1.10
2018-01-20T01:36:41.410Z,1.10
2018-01-20T01:39:07.777Z,1.20
2018-01-20T01:41:34.098Z,1.20
2018-01-20T01:44:00.466Z,1.30
2018-01-20T01:46:26.783Z,1.30
2018-01-20T01:48:53.167Z,1.30
2018-01-20T01:51:19.472Z,1.30
2018-01-20T01:53:45.862Z,1.30
2018-01-20T01:56:12.172Z,1.30
2018-01-20T01:58:38.526Z,1.40
2018-01-20T02:01:04.906Z,1.40
2018-01-20T02:03:32.037Z,1.50
2018-01-20T02:05:58.367Z,1.40
2018-01-20T02:08:24.767Z,1.50
2018-01-20T02:10:51.069Z,1.50
2018-01-20T02:13:17.412Z,1.50
2018-01-20T02:15:43.747Z,1.40
2018-01-20T02:18:10.114Z,1.50
2018-01-20T02:20:36.452Z,1.40
2018-01-20T02:23:02.807Z,1.50
2018-01-20T02:25:29.832Z,1.40
2018-01-20T02:27:56.924Z,1.50
2018-01-20T02:30:23.245Z,1.50
2018-01-20T02:32:49.612Z,1.40
2018-01-20T02:35:15.936Z,1.40
2018-01-20T02:37:42.292Z,1.30
2018-01-20T02:40:09.335Z,1.30
2018-01-20T02:42:36.471Z,1.20
2018-01-20T02:45:02.824Z,1.20
2018-01-20T02:47:34.449Z,1.10
2018-01-20T02:50:00.767Z,1.10
2018-01-20T02:52:27.123Z,1.10
2018-01-20T02:54:53.463Z,1.00
2018-01-20T02:57:19.845Z,1.00
2018-01-20T02:59:46.160Z,1.00
2018-01-20T03:02:13.220Z,0.90
2018-01-20T03:04:40.296Z,0.90
2018-01-20T03:07:06.633Z,0.90
2018-01-20T03:09:32.979Z,0.90
2018-01-20T03:11:59.327Z,0.90
2018-01-20T03:14:25.652Z,0.90
2018-01-20T03:16:52.019Z,0.90
2018-01-20T03:19:19.064Z,0.80
2018-01-20T03:21:46.154Z,0.80
2018-01-20T03:24:12.819Z,0.80
2018-01-20T03:26:39.144Z,0.90
2018-01-20T03:29:05.476Z,0.80
2018-01-20T03:31:31.832Z,0.80
2018-01-20T03:33:58.875Z,0.80
2018-01-20T03:36:25.953Z,0.70
2018-01-20T03:38:52.268Z,0.70
2018-01-20T03:41:19.360Z,0.60
2018-01-20T03:43:45.670Z,0.60
2018-01-20T03:49:06.659Z,0.60
2018-01-20T03:51:33.123Z,0.70
2018-01-20T03:53:59.552Z,0.80
2018-01-20T03:56:25.997Z,0.70
2018-01-20T03:58:52.446Z,0.70
2018-01-20T04:01:18.895Z,0.70
2018-01-20T04:03:45.476Z,0.70
2018-01-20T04:06:12.056Z,0.70
2018-01-20T04:08:39.280Z,0.70
2018-01-20T04:11:05.721Z,0.60
2018-01-20T04:13:32.103Z,0.70
2018-01-20T04:15:58.628Z,0.70
2018-01-20T04:18:25.040Z,0.80
2018-01-20T04:20:51.504Z,0.80
2018-01-20T04:23:17.982Z,0.90
2018-01-20T04:25:44.439Z,0.90
2018-01-20T04:28:10.951Z,1.00
2018-01-20T04:30:37.408Z,1.10
2018-01-20T04:33:03.829Z,1.10
2018-01-20T04:35:30.300Z,1.20
2018-01-20T04:37:57.639Z,1.30
2018-01-20T04:40:24.110Z,1.30
2018-01-20T04:42:50.583Z,1.40
2018-01-20T04:45:17.061Z,1.30
2018-01-20T04:47:44.245Z,1.40
2018-01-20T04:50:10.711Z,1.40
2018-01-20T04:52:37.188Z,1.40
2018-01-20T04:55:03.636Z,1.40
2018-01-20T04:57:30.864Z,1.50
2018-01-20T04:59:57.323Z,1.50
2018-01-20T05:02:23.720Z,1.60
2018-01-20T05:04:50.967Z,1.60
2018-01-20T05:07:17.471Z,1.60
2018-01-20T05:09:43.969Z,1.70
2018-01-20T05:12:10.459Z,1.70
2018-01-20T05:14:36.896Z,1.60
2018-01-20T05:17:03.412Z,1.60
2018-01-20T05:19:29.971Z,1.70
2018-01-20T05:21:56.464Z,1.70
2018-01-20T05:24:22.962Z,1.80
2018-01-20T05:26:49.473Z,1.80
2018-01-20T05:29:15.932Z,1.80
2018-01-20T05:31:42.373Z,1.90
2018-01-20T05:34:08.824Z,1.80
2018-01-20T05:36:35.245Z,1.80
2018-01-20T05:39:01.732Z,1.80
2018-01-20T05:41:28.265Z,1.70
2018-01-20T05:43:54.701Z,1.70
2018-01-20T05:46:21.131Z,1.60
2018-01-20T05:48:47.653Z,1.60
2018-01-20T05:51:14.297Z,1.60
2018-01-20T05:53:41.496Z,1.60
2018-01-20T05:56:07.976Z,1.60
2018-01-20T05:58:34.408Z,1.60
2018-01-20T06:01:00.876Z,1.70
2018-01-20T06:03:27.309Z,1.70
2018-01-20T06:05:53.784Z,1.80
2018-01-20T06:08:20.221Z,1.80
2018-01-20T06:10:46.650Z,1.90
2018-01-20T06:13:13.078Z,1.80
2018-01-20T06:15:39.567Z,1.70
2018-01-20T06:18:05.985Z,1.70
2018-01-20T06:20:32.479Z,1.80
2018-01-20T06:22:58.869Z,1.70
2018-01-20T06:25:25.332Z,1.70
2018-01-20T06:27:51.801Z,1.80
2018-01-20T06:30:18.257Z,1.90
2018-01-20T06:32:44.647Z,1.80
2018-01-20T06:35:11.120Z,1.80
2018-01-20T06:37:37.564Z,1.80
2018-01-20T06:40:04.020Z,1.80
2018-01-20T06:42:30.456Z,1.80
2018-01-20T06:44:56.969Z,1.80
2018-01-20T06:47:23.443Z,1.90
2018-01-20T06:49:49.919Z,1.90
2018-01-20T06:52:16.344Z,2.00
2018-01-20T06:54:42.825Z,2.10
2018-01-20T06:57:09.295Z,2.10
2018-01-20T06:59:35.704Z,2.00
2018-01-20T07:02:02.174Z,2.00
2018-01-20T07:04:28.599Z,2.00
2018-01-20T07:06:55.065Z,1.90
2018-01-20T07:09:21.588Z,1.80
2018-01-20T07:11:48.061Z,1.70
2018-01-20T07:14:14.504Z,1.80
2018-01-20T07:16:40.983Z,1.80
2018-01-20T07:19:08.202Z,1.80
2018-01-20T07:21:34.576Z,1.70
2018-01-20T07:24:01.100Z,1.80
2018-01-20T07:26:27.536Z,1.80
2018-01-20T07:28:53.989Z,1.80
2018-01-20T07:31:20.405Z,1.80
2018-01-20T07:33:47.616Z,1.90
2018-01-20T07:36:14.021Z,1.90
2018-01-20T07:38:41.244Z,1.90
2018-01-20T07:41:07.633Z,1.90
2018-01-20T07:43:34.134Z,1.90
2018-01-20T07:46:00.671Z,2.00
2018-01-20T07:48:27.092Z,2.00
2018-01-20T07:50:53.580Z,1.90
2018-01-20T07:53:19.997Z,1.90
2018-01-20T07:55:46.420Z,1.90
2018-01-20T07:58:12.904Z,2.00
2018-01-20T08:00:39.315Z,2.00
2018-01-20T08:03:05.784Z,2.10
2018-01-20T08:05:32.264Z,2.20
2018-01-20T08:07:58.849Z,2.30
2018-01-20T08:10:25.321Z,2.30
2018-01-20T08:12:51.787Z,2.30
2018-01-20T08:15:18.250Z,2.30
2018-01-20T08:17:44.809Z,2.40
2018-01-20T08:20:11.328Z,2.30
2018-01-20T08:22:37.800Z,2.30
2018-01-20T08:25:04.200Z,2.30
2018-01-20T08:27:30.621Z,2.30
2018-01-20T08:29:57.107Z,2.30
2018-01-20T08:32:23.568Z,2.20
2018-01-20T08:34:50.011Z,2.20
2018-01-20T08:37:16.461Z,2.30
2018-01-20T08:39:42.892Z,2.30
2018-01-20T08:42:09.393Z,2.30
2018-01-20T08:44:35.928Z,2.40
2018-01-20T08:47:02.484Z,2.40
2018-01-20T08:49:28.992Z,2.40
2018-01-20T08:51:55.456Z,2.60
2018-01-20T08:54:21.912Z,2.70
2018-01-20T08:56:48.368Z,2.90
2018-01-20T08:59:14.805Z,3.00
2018-01-20T09:01:41.283Z,3.00
2018-01-20T09:04:07.792Z,3.00
2018-01-20T09:06:34.580Z,3.00
2018-01-20T09:09:01.096Z,2.90
2018-01-20T09:11:27.508Z,2.90
2018-01-20T09:13:53.994Z,2.90
2018-01-20T09:16:20.552Z,2.90
2018-01-20T09:18:47.802Z,3.10
2018-01-20T09:21:14.293Z,3.10
2018-01-20T09:23:40.812Z,3.20
2018-01-20T09:26:07.257Z,3.30
2018-01-20T09:28:33.684Z,3.30
2018-01-20T09:31:00.136Z,3.40
2018-01-20T09:33:26.631Z,3.30
2018-01-20T09:35:53.115Z,3.10
2018-01-20T09:38:19.597Z,3.20
2018-01-20T09:40:45.983Z,3.10
2018-01-20T09:43:13.284Z,3.00
2018-01-20T09:45:39.772Z,3.00
2018-01-20T09:48:06.297Z,2.90
2018-01-20T09:50:32.736Z,2.90
2018-01-20T09:52:59.212Z,2.90
2018-01-20T09:55:25.646Z,3.00
2018-01-20T09:57:52.107Z,3.00
2018-01-20T10:00:18.569Z,3.00
2018-01-20T10:02:45.141Z,3.10
2018-01-20T10:05:11.544Z,3.20
2018-01-20T10:07:37.999Z,3.20
2018-01-20T10:10:04.645Z,3.20
2018-01-20T10:12:31.089Z,3.20
2018-01-20T10:14:57.520Z,3.20
2018-01-20T10:17:23.982Z,3.20
2018-01-20T10:19:50.423Z,3.20
2018-01-20T10:22:16.873Z,3.30
2018-01-20T10:24:43.364Z,3.30
2018-01-20T10:27:10.592Z,3.30
2018-01-20T10:29:37.086Z,3.30
2018-01-20T10:32:04.341Z,3.30
2018-01-20T10:34:31.564Z,3.30
2018-01-20T10:36:57.989Z,3.20
2018-01-20T10:39:24.457Z,3.30
2018-01-20T10:41:50.899Z,3.30
2018-01-20T10:44:17.380Z,3.30
2018-01-20T10:46:43.887Z,3.50
2018-01-20T10:49:10.345Z,3.40
2018-01-20T10:51:36.816Z,3.40
2018-01-20T10:54:03.241Z,3.40
2018-01-20T10:56:29.660Z,3.30
2018-01-20T10:58:56.154Z,3.30
2018-01-20T11:01:22.662Z,3.50
2018-01-20T11:03:49.189Z,3.60
2018-01-20T11:06:16.375Z,3.80
2018-01-20T11:08:42.872Z,3.80
2018-01-20T11:11:09.260Z,3.90
2018-01-20T11:13:35.777Z,4.10
2018-01-20T11:16:02.294Z,4.10
2018-01-20T11:18:28.780Z,4.10
2018-01-20T11:20:56.024Z,4.20
2018-01-20T11:23:22.481Z,4.20
2018-01-20T11:25:48.968Z,4.30
2018-01-20T11:28:16.221Z,4.20
2018-01-20T11:30:43.446Z,4.20
2018-01-20T11:33:09.920Z,4.20
2018-01-20T11:35:36.417Z,4.20
2018-01-20T11:38:02.868Z,4.20
2018-01-20T11:40:29.381Z,4.20
2018-01-20T11:42:56.523Z,4.20
2018-01-20T11:45:23.023Z,4.10
2018-01-20T11:47:49.524Z,4.20
2018-01-20T11:50:16.812Z,4.40
2018-01-20T11:52:44.028Z,4.40
2018-01-20T11:55:10.479Z,4.40
2018-01-20T11:57:37.760Z,4.60
2018-01-20T12:00:04.312Z,4.60
2018-01-20T12:02:30.836Z,4.60
2018-01-20T12:04:57.288Z,4.80
2018-01-20T12:07:23.759Z,4.80
2018-01-20T12:09:50.276Z,4.90
2018-01-20T12:12:16.739Z,4.90
2018-01-20T12:14:43.160Z,5.00
2018-01-20T12:17:09.634Z,5.00
2018-01-20T12:19:36.105Z,5.00
2018-01-20T12:22:02.642Z,4.90
2018-01-20T12:24:29.156Z,4.80
2018-01-20T12:26:55.681Z,4.90
2018-01-20T12:29:22.148Z,4.80
2018-01-20T12:31:48.637Z,4.70
2018-01-20T12:34:15.168Z,4.50
2018-01-20T12:36:41.656Z,4.40
2018-01-20T12:39:09.961Z,4.50
2018-01-20T12:41:37.208Z,4.50
2018-01-20T12:44:03.759Z,4.50
2018-01-20T12:46:31.024Z,4.40
2018-01-20T12:48:57.545Z,4.40
2018-01-20T12:51:24.888Z,4.40
2018-01-20T12:53:51.324Z,4.30
2018-01-20T12:56:17.776Z,4.20
2018-01-20T12:58:44.275Z,4.00
2018-01-20T13:01:10.807Z,4.00
2018-01-20T13:03:37.276Z,3.90
2018-01-20T13:06:04.476Z,3.90
2018-01-20T13:08:30.964Z,3.90
2018-01-20T13:10:57.380Z,3.80
2018-01-20T13:13:23.910Z,4.20
2018-01-20T13:15:50.388Z,4.90
2018-01-20T13:18:16.842Z,5.20
2018-01-20T13:20:43.239Z,5.10
2018-01-20T13:23:09.768Z,4.90
2018-01-20T13:25:36.272Z,4.90
2018-01-20T13:28:02.777Z,4.70
2018-01-20T13:30:29.299Z,4.60
2018-01-20T13:32:55.752Z,4.60
2018-01-20T13:35:22.185Z,4.70
2018-01-20T13:37:48.636Z,4.60
2018-01-20T13:40:15.093Z,4.60
2018-01-20T13:42:41.548Z,4.50
2018-01-20T13:45:08.823Z,4.30
2018-01-20T13:47:35.248Z,4.30
2018-01-20T13:50:01.684Z,4.10
2018-01-20T13:52:28.164Z,4.00
2018-01-20T13:54:54.671Z,3.80
2018-01-20T13:57:21.099Z,3.70
2018-01-20T13:59:48.307Z,3.60
2018-01-20T14:02:14.767Z,3.60
2018-01-20T14:04:41.285Z,3.60
2018-01-20T14:07:07.712Z,3.70
2018-01-20T14:09:34.125Z,3.60
2018-01-20T14:12:01.345Z,3.60
2018-01-20T14:14:27.815Z,3.60
2018-01-20T14:16:54.257Z,3.70
2018-01-20T14:19:20.689Z,3.80
2018-01-20T14:21:47.156Z,3.90
2018-01-20T14:24:13.571Z,4.00
2018-01-20T14:26:41.106Z,4.10
2018-01-20T14:29:08.333Z,4.10
2018-01-20T14:31:34.776Z,4.10
2018-01-20T14:34:01.234Z,4.10
2018-01-20T14:36:28.483Z,4.20
2018-01-20T14:38:55.929Z,4.20
2018-01-20T14:41:22.387Z,4.10
2018-01-20T14:43:49.568Z,4.00
2018-01-20T14:46:16.826Z,4.10
2018-01-20T14:48:43.306Z,4.10
2018-01-20T14:51:10.761Z,4.20
2018-01-20T14:53:37.201Z,4.20
2018-01-20T14:56:03.680Z,4.10
2018-01-20T14:58:30.181Z,4.10
2018-01-20T15:00:56.682Z,4.00
2018-01-20T15:03:23.184Z,4.00
2018-01-20T15:05:49.696Z,3.90
2018-01-20T15:08:16.875Z,3.80
2018-01-20T15:10:44.109Z,3.80
2018-01-20T15:13:10.633Z,3.80
2018-01-20T15:15:37.888Z,3.80
2018-01-20T15:18:04.344Z,3.80
2018-01-20T15:20:30.800Z,3.70
2018-01-20T15:22:57.200Z,3.70
2018-01-20T15:25:23.729Z,3.80
2018-01-20T15:27:50.908Z,3.80
2018-01-20T15:30:17.405Z,3.80
2018-01-20T15:32:43.804Z,3.80
2018-01-20T15:35:10.988Z,3.80
2018-01-20T15:37:37.405Z,3.80
2018-01-20T15:40:05.516Z,3.90
2018-01-20T15:42:31.974Z,3.80
2018-01-20T15:44:58.449Z,3.90
2018-01-20T15:47:24.895Z,3.80
2018-01-20T15:49:51.328Z,3.60
2018-01-20T15:52:17.752Z,3.60
2018-01-20T15:54:44.225Z,3.50
2018-01-20T15:57:10.661Z,3.50
2018-01-20T15:59:37.140Z,3.50
2018-01-20T16:02:03.600Z,3.50
2018-01-20T16:04:30.035Z,3.50
2018-01-20T16:06:56.437Z,3.50
2018-01-20T16:09:22.856Z,3.40
2018-01-20T16:11:49.301Z,3.40
2018-01-20T16:14:16.499Z,3.30
2018-01-20T16:16:42.916Z,3.30
2018-01-20T16:19:10.106Z,3.30
2018-01-20T16:21:36.524Z,3.30
2018-01-20T16:24:05.631Z,3.20
2018-01-20T16:26:32.882Z,3.20
2018-01-20T16:28:59.395Z,3.20
2018-01-20T16:31:27.441Z,3.10
2018-01-20T16:33:53.912Z,3.10
2018-01-20T16:36:20.547Z,3.10
2018-01-20T16:38:47.876Z,3.20
2018-01-20T16:41:14.362Z,3.20
2018-01-20T16:43:41.655Z,3.10
2018-01-20T16:46:08.151Z,3.10
2018-01-20T16:48:34.728Z,3.10
2018-01-20T16:51:01.920Z,2.90
2018-01-20T16:53:28.463Z,2.90
2018-01-20T16:55:56.734Z,2.90
2018-01-20T17:01:28.876Z,2.90
2018-01-20T17:03:55.155Z,2.90
2018-01-20T17:06:21.440Z,2.80
2018-01-20T17:08:47.745Z,2.70
2018-01-20T17:11:14.751Z,2.50
2018-01-20T17:13:41.036Z,2.50
2018-01-20T17:16:07.308Z,2.50
2018-01-20T17:18:33.716Z,2.60
2018-01-20T17:20:59.990Z,2.50
2018-01-20T17:23:26.288Z,2.50
2018-01-20T17:25:52.551Z,2.50
2018-01-20T17:28:18.832Z,2.50
2018-01-20T17:30:45.092Z,2.30
2018-01-20T17:33:11.373Z,2.40
2018-01-20T17:35:37.644Z,2.40
2018-01-20T17:38:03.949Z,2.30
2018-01-20T17:40:30.216Z,2.30
2018-01-20T17:42:56.531Z,2.20
2018-01-20T17:45:22.831Z,2.20
2018-01-20T17:47:49.121Z,2.10
2018-01-20T17:50:15.488Z,2.10
2018-01-20T17:52:41.799Z,2.10
2018-01-20T17:55:08.828Z,2.10
2018-01-20T17:57:35.137Z,2.10
2018-01-20T18:00:01.416Z,2.00
2018-01-20T18:02:27.716Z,2.00
2018-01-20T18:04:53.975Z,1.90
2018-01-20T18:07:21.008Z,1.80
2018-01-20T18:09:48.068Z,1.80
2018-01-20T18:12:15.233Z,1.80
2018-01-20T18:14:41.492Z,1.80
2018-01-20T18:17:07.857Z,1.80
2018-01-20T18:19:34.170Z,1.80
2018-01-20T18:22:00.544Z,1.70
2018-01-20T18:24:26.877Z,1.90
2018-01-20T18:26:53.196Z,1.90
2018-01-20T18:29:20.232Z,2.00
2018-01-20T18:31:47.248Z,2.00
2018-01-20T18:34:13.520Z,2.00
2018-01-20T18:36:40.641Z,2.00
2018-01-20T18:39:06.952Z,2.00
2018-01-20T18:41:33.331Z,2.00
2018-01-20T18:43:59.635Z,1.90
2018-01-20T18:46:25.937Z,1.80
2018-01-20T18:48:52.192Z,1.80
2018-01-20T18:51:18.498Z,1.70
2018-01-20T18:53:44.764Z,1.70
2018-01-20T18:56:11.076Z,1.60
2018-01-20T18:58:37.357Z,1.50
2018-01-20T19:01:03.689Z,1.50
2018-01-20T19:03:29.973Z,1.50
2018-01-20T19:05:56.260Z,1.50
2018-01-20T19:08:22.528Z,1.60
2018-01-20T19:10:48.820Z,1.60
2018-01-20T19:13:15.089Z,1.60
2018-01-20T19:15:41.371Z,1.50
2018-01-20T19:18:07.680Z,1.40
2018-01-20T19:20:34.712Z,1.40
2018-01-20T19:23:01.777Z,1.40
2018-01-20T19:25:28.064Z,1.50
2018-01-20T19:27:54.345Z,1.40
2018-01-20T19:30:20.635Z,1.40
2018-01-20T19:32:46.911Z,1.40
2018-01-20T19:35:13.196Z,1.40
2018-01-20T19:37:39.470Z,1.40
2018-01-20T19:40:05.821Z,1.30
2018-01-20T19:42:32.103Z,1.30
2018-01-20T19:44:59.124Z,1.30
2018-01-20T19:47:25.404Z,1.30
2018-01-20T19:49:51.751Z,1.30
2018-01-20T19:52:18.064Z,1.30
2018-01-20T19:54:44.357Z,1.20
2018-01-20T19:57:10.750Z,1.20
2018-01-20T19:59:37.063Z,1.30
2018-01-20T20:02:03.420Z,1.40
2018-01-20T20:04:29.723Z,1.30
2018-01-20T20:06:56.008Z,1.30
2018-01-20T20:09:22.312Z,1.30
2018-01-20T20:11:48.640Z,1.20
2018-01-20T20:14:14.910Z,1.20
2018-01-20T20:16:41.939Z,1.30
2018-01-20T20:19:08.235Z,1.30
2018-01-20T20:21:34.629Z,1.40
2018-01-20T20:24:01.624Z,1.30
2018-01-20T20:26:27.911Z,1.30
2018-01-20T20:28:54.164Z,1.30
2018-01-20T20:31:20.452Z,1.30
2018-01-20T20:33:47.559Z,1.40
2018-01-20T20:36:13.852Z,1.40
2018-01-20T20:38:40.169Z,1.30
2018-01-20T20:41:07.204Z,1.20
2018-01-20T20:43:33.507Z,1.20
2018-01-20T20:45:59.867Z,1.10
2018-01-20T20:48:26.899Z,1.00
2018-01-20T20:50:54.197Z,0.90
2018-01-20T20:53:20.487Z,1.00
2018-01-20T20:55:46.760Z,1.10
2018-01-20T20:58:13.035Z,1.00
2018-01-20T21:00:39.304Z,1.00
2018-01-20T21:03:05.684Z,1.00
2018-01-20T21:05:31.948Z,1.00
2018-01-20T21:07:58.980Z,1.00
2018-01-20T21:10:25.289Z,0.90
2018-01-20T21:12:51.602Z,1.00
2018-01-20T21:15:17.872Z,0.90
2018-01-20T21:17:44.168Z,0.80
2018-01-20T21:20:10.424Z,0.80
2018-01-20T21:22:36.711Z,0.90
2018-01-20T21:25:03.010Z,0.90
2018-01-20T21:27:30.062Z,0.80
2018-01-20T21:29:57.066Z,0.90
2018-01-20T21:32:23.364Z,0.90
2018-01-20T21:34:49.632Z,0.90
2018-01-20T21:37:15.925Z,0.90
2018-01-20T21:39:42.196Z,0.90
2018-01-20T21:42:09.976Z,0.90
2018-01-20T21:44:41.151Z,0.90
2018-01-20T21:47:07.435Z,0.90
2018-01-20T21:49:33.705Z,0.90
2018-01-20T21:52:00.024Z,0.90
2018-01-20T21:54:27.044Z,1.10
2018-01-20T21:56:53.318Z,1.00
2018-01-20T21:59:19.591Z,1.00
2018-01-20T22:01:46.635Z,1.00
2018-01-20T22:04:12.919Z,1.00
2018-01-20T22:06:39.179Z,0.90
2018-01-20T22:09:05.497Z,0.90
2018-01-20T22:11:31.786Z,1.00
2018-01-20T22:13:58.827Z,0.90
2018-01-20T22:16:25.086Z,0.90
2018-01-20T22:18:51.371Z,0.90
2018-01-20T22:21:17.664Z,0.90
2018-01-20T22:23:43.964Z,0.90
2018-01-20T22:26:10.972Z,1.00
2018-01-20T22:28:37.260Z,1.00
2018-01-20T22:31:03.524Z,1.00
2018-01-20T22:33:29.815Z,1.10
2018-01-20T22:35:56.085Z,1.10
2018-01-20T22:38:22.377Z,1.10
2018-01-20T22:40:48.643Z,1.00
2018-01-20T22:43:14.964Z,1.00
2018-01-20T22:45:41.239Z,1.00
2018-01-20T22:48:08.268Z,0.90
2018-01-20T22:50:34.578Z,0.90
2018-01-20T22:53:00.903Z,0.90
2018-01-20T22:55:27.207Z,0.90
2018-01-20T22:57:53.509Z,0.80
2018-01-20T23:00:20.567Z,0.90
2018-01-20T23:02:46.848Z,0.90
2018-01-20T23:05:13.152Z,0.90
2018-01-20T23:07:39.436Z,0.80
2018-01-20T23:10:06.482Z,0.90
2018-01-20T23:12:33.571Z,1.00
2018-01-20T23:14:59.840Z,1.00
2018-01-20T23:17:26.184Z,1.00
2018-01-20T23:19:52.469Z,1.10
2018-01-20T23:22:18.760Z,1.00
2018-01-20T23:24:45.768Z,1.00
2018-01-20T23:27:12.080Z,1.00
2018-01-20T23:29:38.360Z,0.90
2018-01-20T23:32:05.424Z,1.00
2018-01-20T23:34:32.428Z,1.00
2018-01-20T23:36:58.712Z,0.90
2018-01-20T23:39:24.991Z,1.00
2018-01-20T23:41:51.380Z,1.00
2018-01-20T23:44:17.705Z,1.10
2018-01-20T23:46:44.120Z,1.10
2018-01-20T23:49:11.187Z,1.00
2018-01-20T23:51:37.463Z,1.00
2018-01-20T23:54:03.823Z,1.00
2018-01-20T23:56:30.865Z,1.00
2018-01-20T23:58:57.928Z,0.90
